Time;durP1;ratioP1;P1;durP2;ratioP2;P2;SDS_P1;SDS_P2;PMS_P1;PMS_P2;Temp;Humidity;BMP_temperature;BMP_pressure;BME280_temperature;BME280_humidity;BME280_pressure;Samples;Min_cycle;Max_cycle;Signal;HPM_P1;HPM_P2
2023/06/07 00:00:33;;;;;;;1.45;0.90;;;;;;;19.81;42.53;100426.44;10279013;28;20039;-64
2023/06/07 00:05:36;;;;;;;2.55;1.60;;;;;;;19.84;42.48;100430.59;10284314;28;20065;-63
2023/06/07 00:10:37;;;;;;;3.40;1.20;;;;;;;19.76;42.75;100431.78;10293158;28;20047;-64
2023/06/07 00:15:39;;;;;;;3.58;1.00;;;;;;;19.75;42.83;100432.84;10290142;28;20154;-64
2023/06/07 00:20:45;;;;;;;3.00;1.23;;;;;;;19.80;42.99;100429.41;10287052;28;20585;-65
2023/06/07 00:25:46;;;;;;;3.83;1.45;;;;;;;19.89;43.20;100422.56;10288091;28;20050;-65
2023/06/07 00:30:48;;;;;;;3.08;1.30;;;;;;;19.90;43.34;100429.66;10287474;28;20042;-65
2023/06/07 00:35:50;;;;;;;2.30;1.30;;;;;;;19.96;43.25;100426.00;10278119;28;20046;-64
2023/06/07 00:40:56;;;;;;;3.60;1.45;;;;;;;20.01;43.57;100426.13;10288562;28;20054;-65
2023/06/07 00:45:58;;;;;;;6.05;2.15;;;;;;;20.01;43.66;100422.56;10282390;28;20089;-63
2023/06/07 00:51:00;;;;;;;2.13;1.15;;;;;;;20.04;43.72;100426.69;10289174;28;20081;-64
2023/06/07 00:56:02;;;;;;;6.15;2.05;;;;;;;20.08;43.69;100416.97;10280917;28;20093;-63
2023/06/07 01:01:05;;;;;;;3.65;1.67;;;;;;;20.10;43.24;100426.59;10286892;28;20042;-63
2023/06/07 01:06:07;;;;;;;5.20;1.60;;;;;;;20.11;43.03;100421.97;10288278;28;20058;-64
2023/06/07 01:11:10;;;;;;;4.65;1.30;;;;;;;20.07;43.43;100418.06;10285278;28;20860;-64
2023/06/07 01:16:12;;;;;;;2.53;1.20;;;;;;;20.04;43.21;100411.16;10282800;28;20046;-64
2023/06/07 01:21:18;;;;;;;4.63;1.85;;;;;;;20.07;43.91;100412.59;10290895;28;20051;-64
2023/06/07 01:26:20;;;;;;;3.67;1.45;;;;;;;20.10;43.92;100418.41;10290250;28;20065;-63
2023/06/07 01:31:22;;;;;;;4.10;1.50;;;;;;;20.12;44.31;100413.56;10284759;28;20064;-64
2023/06/07 01:36:25;;;;;;;4.78;1.88;;;;;;;20.08;44.54;100412.34;10294203;28;20090;-63
2023/06/07 01:41:29;;;;;;;5.35;1.50;;;;;;;20.12;44.34;100404.50;10285036;28;20046;-64
2023/06/07 01:46:33;;;;;;;3.17;1.50;;;;;;;20.18;44.43;100403.56;10283700;28;20046;-64
2023/06/07 01:51:35;;;;;;;2.85;1.55;;;;;;;20.15;44.59;100393.13;10286631;28;20035;-64
2023/06/07 01:57:04;;;;;;;2.95;1.70;;;;;;;20.12;44.40;100390.88;10275170;28;20490;-62
2023/06/07 02:02:15;;;;;;;5.93;1.50;;;;;;;20.07;44.18;100380.66;10282287;28;20500;-64
2023/06/07 02:07:23;;;;;;;5.47;1.10;;;;;;;19.97;44.70;100386.72;10284464;28;20051;-64
2023/06/07 02:12:26;;;;;;;3.05;1.30;;;;;;;20.00;44.42;100382.69;10268045;28;20043;-65
2023/06/07 02:17:28;;;;;;;2.55;1.30;;;;;;;19.88;44.87;100377.22;10279878;28;20053;-65
2023/06/07 02:22:30;;;;;;;4.03;1.52;;;;;;;19.95;44.71;100380.69;10279407;28;20105;-63
2023/06/07 02:27:31;;;;;;;3.67;1.83;;;;;;;19.89;45.00;100372.63;10276854;28;20041;-63
2023/06/07 02:32:33;;;;;;;4.03;1.40;;;;;;;19.84;45.24;100373.31;10283057;28;20042;-63
2023/06/07 02:37:35;;;;;;;3.08;1.52;;;;;;;19.80;45.34;100370.22;10286804;28;20070;-63
2023/06/07 02:42:37;;;;;;;3.90;1.63;;;;;;;19.72;45.64;100369.75;10281851;28;20529;-63
2023/06/07 02:47:38;;;;;;;1.90;1.35;;;;;;;19.66;45.94;100374.22;10273816;28;20518;-64
2023/06/07 02:52:41;;;;;;;2.78;1.67;;;;;;;19.70;46.15;100377.31;10283968;28;20043;-63
2023/06/07 02:57:43;;;;;;;3.47;1.63;;;;;;;19.76;46.24;100382.66;10289723;28;20070;-64
2023/06/07 03:02:44;;;;;;;1.77;1.15;;;;;;;19.80;46.54;100369.41;10287019;28;20058;-62
2023/06/07 03:07:46;;;;;;;4.10;1.40;;;;;;;19.72;46.73;100375.22;10283865;28;20042;-63
2023/06/07 03:12:47;;;;;;;2.80;1.30;;;;;;;19.71;46.57;100378.97;10283420;28;20055;-63
2023/06/07 03:17:49;;;;;;;2.42;1.90;;;;;;;19.80;46.53;100380.31;10288529;28;20057;-62
2023/06/07 03:22:51;;;;;;;4.53;1.58;;;;;;;19.81;46.75;100373.81;10291590;28;20065;-61
2023/06/07 03:27:52;;;;;;;4.55;1.70;;;;;;;19.83;46.97;100382.56;10287158;28;21421;-61
2023/06/07 03:32:54;;;;;;;4.47;1.58;;;;;;;19.90;46.53;100386.00;10280292;28;20145;-61
2023/06/07 03:37:55;;;;;;;5.85;2.05;;;;;;;19.89;46.54;100387.09;10289833;28;20047;-62
2023/06/07 03:42:59;;;;;;;5.00;1.85;;;;;;;19.85;46.67;100388.63;10280326;28;20051;-62
2023/06/07 03:48:00;;;;;;;4.18;1.98;;;;;;;19.89;46.90;100392.53;10291325;28;20502;-62
2023/06/07 03:53:02;;;;;;;3.90;2.08;;;;;;;19.96;46.90;100395.13;10285869;28;20051;-62
2023/06/07 03:58:05;;;;;;;4.57;2.42;;;;;;;19.96;47.10;100397.88;10291845;28;20053;-62
2023/06/07 04:03:07;;;;;;;4.40;1.67;;;;;;;19.93;47.08;100398.34;10292251;28;20051;-62
2023/06/07 04:08:09;;;;;;;2.10;1.45;;;;;;;19.91;47.29;100390.41;10291533;28;20051;-62
2023/06/07 04:13:11;;;;;;;4.00;1.98;;;;;;;19.95;47.30;100396.22;10280111;28;20057;-62
2023/06/07 04:18:12;;;;;;;3.13;2.25;;;;;;;19.96;47.37;100397.88;10290719;28;20067;-62
2023/06/07 04:23:14;;;;;;;3.65;1.58;;;;;;;20.02;47.28;100394.19;10293353;28;20051;-62
2023/06/07 04:28:16;;;;;;;4.00;2.17;;;;;;;20.07;47.23;100394.31;10286890;28;20054;-62
2023/06/07 04:33:19;;;;;;;2.60;2.05;;;;;;;20.12;47.50;100390.88;10284567;28;20130;-62
2023/06/07 04:38:21;;;;;;;3.35;1.85;;;;;;;20.16;47.56;100401.09;10292171;28;20058;-63
2023/06/07 04:43:24;;;;;;;4.78;2.08;;;;;;;20.21;47.75;100401.19;10294208;28;20413;-62
2023/06/07 04:48:28;;;;;;;5.13;2.05;;;;;;;20.23;47.36;100391.94;10292934;28;20074;-62
2023/06/07 04:53:36;;;;;;;5.28;2.40;;;;;;;20.22;47.42;100391.09;10267373;28;20046;-62
2023/06/07 04:58:40;;;;;;;4.63;2.28;;;;;;;20.23;47.25;100400.94;10296577;28;20435;-61
2023/06/07 05:03:42;;;;;;;5.40;2.03;;;;;;;20.18;47.52;100398.09;10281538;28;20126;-61
2023/06/07 05:08:45;;;;;;;2.90;1.92;;;;;;;20.17;47.91;100407.38;10278321;28;20133;-61
2023/06/07 05:13:49;;;;;;;5.32;2.05;;;;;;;20.36;47.67;100411.63;10294282;28;20038;-61
2023/06/07 05:18:50;;;;;;;4.90;2.05;;;;;;;20.47;47.40;100403.66;10284030;28;20042;-63
2023/06/07 05:23:52;;;;;;;4.72;2.15;;;;;;;20.58;47.03;100400.06;10282960;28;20176;-64
2023/06/07 05:28:53;;;;;;;3.58;2.13;;;;;;;20.70;46.87;100403.63;10277698;28;20520;-65
2023/06/07 05:33:55;;;;;;;2.55;1.92;;;;;;;20.79;47.48;100402.19;10283933;28;20042;-63
2023/06/07 05:38:56;;;;;;;5.07;1.85;;;;;;;20.95;46.72;100403.31;10288645;28;20057;-65
2023/06/07 05:43:57;;;;;;;3.63;2.08;;;;;;;21.05;46.62;100405.44;10284209;28;20488;-64
2023/06/07 05:48:59;;;;;;;4.25;2.15;;;;;;;21.02;46.95;100405.91;10282356;28;20055;-64
2023/06/07 05:54:01;;;;;;;4.10;2.35;;;;;;;21.14;46.80;100412.13;10286749;28;20038;-64
2023/06/07 05:59:03;;;;;;;4.63;2.13;;;;;;;21.16;47.11;100411.91;10283421;28;20095;-64
2023/06/07 06:04:04;;;;;;;5.57;1.92;;;;;;;21.32;47.11;100410.28;10286240;28;20042;-63
2023/06/07 06:09:06;;;;;;;4.32;1.88;;;;;;;21.32;47.53;100413.00;10285983;28;20497;-64
2023/06/07 06:14:07;;;;;;;2.90;1.98;;;;;;;21.33;47.39;100409.22;10265247;28;20097;-64
2023/06/07 06:19:09;;;;;;;6.13;2.45;;;;;;;21.33;47.69;100414.69;10298134;28;20050;-63
2023/06/07 06:24:10;;;;;;;3.00;2.05;;;;;;;21.45;47.72;100417.41;10297393;28;20049;-62
2023/06/07 06:29:12;;;;;;;8.20;3.40;;;;;;;21.64;47.66;100418.78;10295778;28;20050;-64
2023/06/07 06:34:14;;;;;;;4.72;2.10;;;;;;;21.83;47.65;100419.41;10297369;28;20035;-66
2023/06/07 06:39:15;;;;;;;3.40;2.20;;;;;;;22.04;47.14;100415.06;10289179;28;20486;-62
2023/06/07 06:44:17;;;;;;;7.05;2.08;;;;;;;22.21;47.36;100420.50;10287277;28;20038;-63
2023/06/07 06:49:18;;;;;;;4.80;2.40;;;;;;;22.42;47.34;100429.06;10285525;28;20050;-63
2023/06/07 06:54:20;;;;;;;5.80;2.38;;;;;;;22.70;46.89;100428.06;10289500;28;20058;-63
2023/06/07 06:59:22;;;;;;;10.02;3.85;;;;;;;22.91;46.22;100429.16;10277936;28;20042;-63
2023/06/07 07:04:23;;;;;;;4.40;2.20;;;;;;;23.16;45.59;100432.22;10290414;28;20047;-63
2023/06/07 07:09:25;;;;;;;5.28;2.85;;;;;;;23.35;45.12;100440.06;10291009;28;20093;-63
2023/06/07 07:14:26;;;;;;;5.53;2.33;;;;;;;23.55;44.88;100436.69;10290841;28;20046;-63
2023/06/07 07:19:28;;;;;;;3.08;2.60;;;;;;;23.86;43.94;100434.25;10285167;28;20057;-63
2023/06/07 07:24:30;;;;;;;6.05;2.90;;;;;;;24.07;43.57;100427.84;10288933;28;20042;-62
2023/06/07 07:29:32;;;;;;;6.63;2.05;;;;;;;24.11;43.38;100417.97;10287217;28;20050;-62
2023/06/07 07:34:33;;;;;;;5.30;2.60;;;;;;;24.04;43.25;100425.59;10291681;28;20452;-63
2023/06/07 07:39:35;;;;;;;4.80;2.33;;;;;;;24.17;42.93;100431.72;10288259;28;20086;-64
2023/06/07 07:44:37;;;;;;;6.47;2.53;;;;;;;24.12;42.84;100430.59;10271739;28;20061;-64
2023/06/07 07:49:39;;;;;;;9.57;3.15;;;;;;;24.14;42.55;100433.09;10309141;28;20031;-63
2023/06/07 07:54:40;;;;;;;4.80;2.72;;;;;;;24.30;42.74;100434.00;10350464;28;20223;-64
2023/06/07 07:59:42;;;;;;;6.70;3.20;;;;;;;24.37;42.06;100437.38;10336029;28;20074;-63
2023/06/07 08:04:43;;;;;;;7.07;3.42;;;;;;;24.14;42.70;100428.41;10322162;28;20098;-62
2023/06/07 08:09:44;;;;;;;3.60;2.50;;;;;;;24.41;41.79;100427.50;10326359;28;20039;-63
2023/06/07 08:14:46;;;;;;;4.65;2.83;;;;;;;24.53;41.72;100424.56;10336587;28;20026;-64
2023/06/07 08:19:48;;;;;;;6.43;2.65;;;;;;;24.57;41.89;100420.19;10339146;28;20046;-64
2023/06/07 08:24:49;;;;;;;5.38;2.25;;;;;;;24.82;40.77;100418.63;10331888;28;20077;-59
2023/06/07 08:29:50;;;;;;;5.20;2.85;;;;;;;24.83;40.96;100428.53;10286152;28;20050;-57
2023/06/07 08:34:52;;;;;;;8.15;2.67;;;;;;;24.81;40.38;100422.50;10288282;28;20047;-57
2023/06/07 08:39:53;;;;;;;3.58;2.40;;;;;;;25.06;39.57;100422.56;10280602;28;20053;-56
2023/06/07 08:44:55;;;;;;;2.85;2.13;;;;;;;25.12;39.08;100416.00;10276423;28;20572;-57
2023/06/07 08:49:57;;;;;;;3.83;2.00;;;;;;;25.27;39.06;100415.19;10284834;28;20046;-58
2023/06/07 08:55:03;;;;;;;2.40;1.88;;;;;;;25.60;38.25;100417.75;10285561;28;20582;-58
2023/06/07 09:00:07;;;;;;;4.30;2.00;;;;;;;25.75;37.84;100422.41;10285031;28;20133;-57
2023/06/07 09:05:09;;;;;;;3.90;2.10;;;;;;;25.77;37.56;100423.81;10279189;28;20670;-57
2023/06/07 09:10:13;;;;;;;3.85;2.20;;;;;;;25.87;37.05;100420.19;10281892;28;20141;-58
2023/06/07 09:15:21;;;;;;;5.75;2.25;;;;;;;26.00;36.92;100411.41;10283516;28;20042;-57
2023/06/07 09:20:24;;;;;;;11.40;2.72;;;;;;;26.62;36.24;100412.13;10289127;28;20050;-57
2023/06/07 09:25:30;;;;;;;4.50;2.75;;;;;;;27.04;35.98;100418.25;10286623;28;20441;-57
2023/06/07 09:30:31;;;;;;;5.75;2.92;;;;;;;27.28;35.76;100424.75;10282529;28;20058;-59
2023/06/07 09:35:33;;;;;;;3.42;2.50;;;;;;;27.24;35.84;100417.34;10288487;28;20051;-57
2023/06/07 09:40:34;;;;;;;5.03;2.78;;;;;;;27.55;35.51;100417.97;10284971;28;20524;-58
2023/06/07 09:45:36;;;;;;;5.93;2.50;;;;;;;27.78;34.74;100424.66;10281717;28;20054;-59
2023/06/07 09:50:37;;;;;;;5.18;1.98;;;;;;;27.74;34.93;100429.13;10276733;28;20074;-59
2023/06/07 09:55:39;;;;;;;4.90;2.05;;;;;;;27.91;34.15;100428.72;10282046;28;20100;-58
2023/06/07 10:00:42;;;;;;;5.43;2.13;;;;;;;28.03;34.01;100425.59;10279413;28;20051;-59
2023/06/07 10:05:43;;;;;;;5.75;3.05;;;;;;;28.22;33.00;100423.75;10287045;28;20041;-59
2023/06/07 10:10:48;;;;;;;2.45;2.08;;;;;;;28.35;33.36;100418.63;10284232;28;20548;-56
2023/06/07 10:15:51;;;;;;;4.82;1.90;;;;;;;28.17;33.11;100414.66;10281611;28;20081;-58
2023/06/07 10:20:57;;;;;;;6.25;2.33;;;;;;;28.04;33.47;100407.88;10285384;28;20055;-58
2023/06/07 10:26:04;;;;;;;3.58;2.13;;;;;;;27.99;33.70;100410.72;10278094;28;20050;-58
2023/06/07 10:31:10;;;;;;;2.95;2.20;;;;;;;28.47;32.91;100399.66;10280820;28;20050;-58
2023/06/07 10:36:13;;;;;;;3.85;2.40;;;;;;;28.82;32.86;100397.63;10278996;28;20066;-59
2023/06/07 10:41:15;;;;;;;3.90;2.38;;;;;;;29.05;32.37;100396.72;10283715;28;20127;-58
2023/06/07 10:46:23;;;;;;;6.53;3.00;;;;;;;28.91;32.52;100390.31;10266228;28;20088;-58
2023/06/07 10:51:51;;;;;;;6.15;2.45;;;;;;;28.65;32.87;100381.50;10268609;28;20058;-58
2023/06/07 10:56:53;;;;;;;3.10;2.15;;;;;;;28.81;32.06;100382.97;10280342;28;20057;-58
2023/06/07 11:02:24;;;;;;;5.10;2.35;;;;;;;28.56;33.01;100381.34;10289158;28;20050;-59
2023/06/07 11:07:28;;;;;;;9.77;2.67;;;;;;;28.36;33.42;100390.69;10282344;28;20110;-59
2023/06/07 11:12:43;;;;;;;3.45;1.95;;;;;;;28.62;33.04;100382.91;10288790;28;20065;-61
2023/06/07 11:17:59;;;;;;;5.15;2.60;;;;;;;28.41;32.97;100373.19;10290171;28;20538;-61
2023/06/07 11:23:27;;;;;;;4.68;2.00;;;;;;;28.13;33.75;100374.91;10283729;28;20045;-61
2023/06/07 11:28:33;;;;;;;4.25;2.33;;;;;;;28.34;33.54;100378.25;10294320;28;20050;-61
2023/06/07 11:33:35;;;;;;;3.40;2.60;;;;;;;28.55;33.41;100371.38;10285867;28;20054;-60
2023/06/07 11:38:37;;;;;;;4.20;2.53;;;;;;;28.97;33.36;100377.19;10293318;28;20145;-61
2023/06/07 11:43:39;;;;;;;3.95;2.17;;;;;;;29.39;32.24;100368.00;10284567;28;20046;-60
2023/06/07 11:48:41;;;;;;;1.95;1.70;;;;;;;29.57;32.59;100368.28;10295879;28;20050;-59
2023/06/07 11:53:42;;;;;;;2.22;2.03;;;;;;;29.67;32.03;100368.91;10289773;28;20049;-61
2023/06/07 11:58:44;;;;;;;3.50;2.47;;;;;;;29.62;32.51;100366.25;10287693;28;20054;-60
2023/06/07 12:03:47;;;;;;;3.38;2.42;;;;;;;29.65;32.54;100357.31;10283413;28;20058;-61
2023/06/07 12:08:51;;;;;;;2.97;1.95;;;;;;;29.65;32.61;100350.94;10290123;28;20058;-64
2023/06/07 12:13:53;;;;;;;4.68;2.28;;;;;;;29.74;32.12;100351.94;10293602;28;20184;-61
2023/06/07 12:18:55;;;;;;;2.38;1.85;;;;;;;29.76;32.14;100348.84;10285984;28;20053;-60
2023/06/07 12:24:00;;;;;;;3.10;2.28;;;;;;;29.78;32.21;100341.88;10287863;28;20065;-60
2023/06/07 12:29:02;;;;;;;2.80;2.10;;;;;;;29.79;32.22;100340.75;10289814;28;20077;-60
2023/06/07 12:34:05;;;;;;;2.88;1.95;;;;;;;29.81;32.47;100330.16;10267897;28;20074;-63
2023/06/07 12:39:09;;;;;;;7.00;2.08;;;;;;;30.07;31.63;100317.78;10281652;28;20051;-62
2023/06/07 12:44:11;;;;;;;2.80;1.80;;;;;;;29.95;31.84;100319.09;10285012;28;20050;-60
2023/06/07 12:49:13;;;;;;;4.28;2.08;;;;;;;29.82;32.40;100317.97;10282659;28;20062;-61
2023/06/07 12:54:14;;;;;;;12.90;2.28;;;;;;;29.81;32.38;100313.53;10291790;28;20586;-62
2023/06/07 12:59:16;;;;;;;3.05;2.05;;;;;;;30.08;31.81;100308.34;10282887;28;20043;-62
2023/06/07 13:04:18;;;;;;;3.55;1.63;;;;;;;30.61;31.71;100300.28;10285751;28;20398;-62
2023/06/07 13:09:20;;;;;;;2.38;2.17;;;;;;;30.93;30.94;100304.03;10284510;28;20054;-63
2023/06/07 13:14:21;;;;;;;2.00;1.65;;;;;;;31.58;29.98;100294.38;10280908;28;20049;-64
2023/06/07 13:19:23;;;;;;;1.92;1.10;;;;;;;31.70;29.09;100293.78;10274491;28;20039;-63
2023/06/07 13:24:24;;;;;;;3.65;1.42;;;;;;;31.80;29.28;100289.88;10285165;28;20394;-63
2023/06/07 13:29:26;;;;;;;2.40;1.23;;;;;;;32.21;28.71;100278.44;10284071;28;20057;-63
2023/06/07 13:34:27;;;;;;;2.55;1.63;;;;;;;32.53;28.24;100279.16;10265810;28;20043;-62
2023/06/07 13:39:29;;;;;;;2.13;1.92;;;;;;;32.91;27.99;100272.97;10285849;28;20125;-62
2023/06/07 13:44:30;;;;;;;3.33;1.70;;;;;;;32.47;28.47;100272.09;10285452;28;20049;-62
2023/06/07 13:49:32;;;;;;;3.13;1.60;;;;;;;32.88;27.78;100270.00;10287365;28;20148;-62
2023/06/07 13:54:34;;;;;;;4.35;2.85;;;;;;;33.17;27.75;100269.34;10280893;28;20046;-63
2023/06/07 13:59:35;;;;;;;3.47;2.05;;;;;;;33.02;27.62;100264.25;10266938;28;20046;-62
2023/06/07 14:04:36;;;;;;;1.95;1.52;;;;;;;33.32;27.28;100263.28;10294458;28;20490;-62
2023/06/07 14:09:38;;;;;;;5.93;2.72;;;;;;;33.21;28.12;100261.16;10281379;28;20125;-62
2023/06/07 14:14:40;;;;;;;2.75;2.53;;;;;;;32.80;29.28;100263.28;10287247;28;20097;-63
2023/06/07 14:19:42;;;;;;;4.93;4.30;;;;;;;32.89;29.14;100243.81;10277886;28;20055;-62
2023/06/07 14:24:44;;;;;;;2.10;1.80;;;;;;;33.08;28.81;100240.66;10282963;28;20046;-63
2023/06/07 14:29:45;;;;;;;3.13;2.10;;;;;;;33.67;28.15;100251.19;10283085;28;20061;-61
2023/06/07 14:34:47;;;;;;;2.83;1.67;;;;;;;34.07;27.97;100232.16;10281087;28;20038;-62
2023/06/07 14:39:48;;;;;;;2.45;1.60;;;;;;;34.42;27.59;100231.94;10278763;28;20043;-62
2023/06/07 14:44:55;;;;;;;2.03;1.45;;;;;;;34.72;26.71;100229.91;10278116;28;20443;-62
2023/06/07 14:49:57;;;;;;;2.13;1.30;;;;;;;34.55;27.23;100242.00;10294778;28;20611;-62
2023/06/07 14:54:58;;;;;;;3.97;1.50;;;;;;;34.26;27.23;100226.13;10287128;28;20062;-62
2023/06/07 15:00:03;;;;;;;2.13;1.23;;;;;;;34.28;27.66;100231.38;10268210;28;20046;-62
2023/06/07 15:05:07;;;;;;;2.25;1.10;;;;;;;33.99;27.52;100230.22;10290978;28;20049;-62
2023/06/07 15:10:09;;;;;;;1.38;0.85;;;;;;;34.08;26.70;100227.38;10288036;28;20050;-62
2023/06/07 15:15:11;;;;;;;1.58;1.30;;;;;;;34.03;26.18;100222.81;10285893;28;20038;-63
2023/06/07 15:20:12;;;;;;;3.83;0.95;;;;;;;33.90;26.30;100215.50;10267477;28;20085;-70
2023/06/07 15:25:14;;;;;;;1.88;1.02;;;;;;;33.98;26.39;100223.00;10289198;28;20051;-68
2023/06/07 15:30:15;;;;;;;1.20;1.08;;;;;;;34.01;26.18;100218.72;10290961;28;20050;-69
2023/06/07 15:35:17;;;;;;;1.50;1.40;;;;;;;34.16;26.67;100210.63;10294159;28;20055;-69
2023/06/07 15:40:18;;;;;;;1.70;1.27;;;;;;;34.35;26.02;100220.50;10288142;28;20059;-65
2023/06/07 15:45:19;;;;;;;4.05;1.35;;;;;;;34.39;26.03;100215.88;10289762;28;20430;-67
2023/06/07 15:50:21;;;;;;;1.38;1.10;;;;;;;34.39;26.14;100207.50;10286255;28;20043;-68
2023/06/07 15:55:23;;;;;;;3.55;1.30;;;;;;;34.40;26.22;100217.47;10282069;28;20043;-68
2023/06/07 16:00:26;;;;;;;2.42;2.17;;;;;;;33.96;26.65;100208.56;10291797;28;20042;-67
2023/06/07 16:05:39;;;;;;;4.43;2.30;;;;;;;33.83;27.13;100206.84;10280062;28;20047;-65
2023/06/07 16:10:40;;;;;;;3.58;2.40;;;;;;;33.45;28.32;100208.44;10284519;28;20058;-67
2023/06/07 16:15:42;;;;;;;3.95;2.58;;;;;;;33.39;28.65;100199.50;10289021;28;20058;-67
2023/06/07 16:20:44;;;;;;;3.47;2.58;;;;;;;33.54;28.63;100205.66;10284841;28;20078;-67
2023/06/07 16:25:48;;;;;;;3.85;2.60;;;;;;;33.57;28.58;100197.44;10293294;28;20047;-64
2023/06/07 16:30:50;;;;;;;4.70;2.15;;;;;;;33.59;28.61;100185.94;10285622;28;20078;-65
2023/06/07 16:35:51;;;;;;;6.28;4.15;;;;;;;33.77;28.82;100184.75;10286261;28;20050;-66
2023/06/07 16:40:53;;;;;;;3.55;2.33;;;;;;;33.94;27.87;100186.59;10270724;28;20050;-67
2023/06/07 16:45:54;;;;;;;6.40;3.40;;;;;;;34.16;27.91;100184.66;10292391;28;20498;-64
2023/06/07 16:50:56;;;;;;;6.72;2.30;;;;;;;34.26;27.52;100173.09;10287614;28;20562;-66
2023/06/07 16:55:57;;;;;;;4.03;2.10;;;;;;;34.34;27.67;100168.59;10281415;28;20035;-69
2023/06/07 17:00:59;;;;;;;2.10;1.90;;;;;;;34.49;27.01;100167.19;10270260;28;20042;-66
2023/06/07 17:06:01;;;;;;;2.92;2.40;;;;;;;34.54;26.88;100165.00;10286504;28;20070;-63
2023/06/07 17:11:05;;;;;;;1.77;1.67;;;;;;;34.03;27.53;100160.63;10283302;28;20121;-67
2023/06/07 17:16:06;;;;;;;2.03;1.60;;;;;;;33.71;27.82;100161.00;10273699;28;20474;-67
2023/06/07 17:21:08;;;;;;;2.33;1.85;;;;;;;33.54;27.57;100163.84;10285514;28;20047;-68
2023/06/07 17:26:09;;;;;;;2.63;2.30;;;;;;;32.68;29.04;100171.28;10283662;28;20134;-63
2023/06/07 17:31:10;;;;;;;2.72;2.10;;;;;;;31.86;30.31;100180.16;10290039;28;20050;-64
2023/06/07 17:36:12;;;;;;;2.42;2.22;;;;;;;31.24;31.80;100172.72;10278674;28;20481;-62
2023/06/07 17:41:13;;;;;;;3.60;2.60;;;;;;;30.72;32.54;100189.84;10288658;28;20055;-62
2023/06/07 17:46:15;;;;;;;3.90;2.83;;;;;;;30.16;33.15;100180.06;10287662;28;20620;-62
2023/06/07 17:51:17;;;;;;;3.17;2.75;;;;;;;29.66;34.03;100178.88;10286530;28;20057;-62
2023/06/07 17:56:19;;;;;;;5.43;3.15;;;;;;;29.32;34.57;100179.25;10282078;28;20050;-65
2023/06/07 18:01:22;;;;;;;4.53;3.05;;;;;;;28.98;35.28;100168.50;10280948;28;20054;-63
2023/06/07 18:06:24;;;;;;;3.38;3.08;;;;;;;28.76;35.83;100169.97;10283349;28;20042;-62
2023/06/07 18:11:26;;;;;;;4.50;3.10;;;;;;;28.50;36.73;100175.06;10282804;28;20052;-63
2023/06/07 18:16:28;;;;;;;3.03;2.80;;;;;;;28.25;37.30;100168.78;10288584;28;20046;-63
2023/06/07 18:21:30;;;;;;;6.05;4.75;;;;;;;28.02;37.24;100177.97;10282824;28;20055;-65
2023/06/07 18:26:31;;;;;;;4.25;3.05;;;;;;;27.92;37.86;100183.63;10282833;28;20449;-64
2023/06/07 18:31:33;;;;;;;4.90;3.88;;;;;;;27.72;38.16;100176.38;10285060;28;20391;-65
2023/06/07 18:36:35;;;;;;;4.63;3.15;;;;;;;27.52;39.00;100196.78;10293538;28;20061;-65
2023/06/07 18:41:36;;;;;;;3.80;3.33;;;;;;;27.26;39.15;100180.50;10287948;28;20058;-66
2023/06/07 18:46:38;;;;;;;4.18;3.67;;;;;;;26.99;39.82;100183.75;10278894;28;20040;-66
2023/06/07 18:51:40;;;;;;;5.38;3.53;;;;;;;26.78;40.02;100191.38;10284129;28;20047;-64
2023/06/07 18:56:41;;;;;;;4.55;3.85;;;;;;;26.58;40.45;100190.44;10287166;28;20525;-65
2023/06/07 19:01:45;;;;;;;3.25;2.95;;;;;;;26.40;41.18;100185.56;10277162;28;20474;-65
2023/06/07 19:06:53;;;;;;;6.60;2.75;;;;;;;26.22;41.06;100190.63;10285335;28;20049;-64
2023/06/07 19:11:55;;;;;;;6.32;3.25;;;;;;;25.94;42.04;100189.41;10280336;28;20046;-65
2023/06/07 19:16:57;;;;;;;4.97;3.40;;;;;;;25.82;42.20;100192.44;10282200;28;20380;-65
2023/06/07 19:21:59;;;;;;;4.38;3.22;;;;;;;25.63;42.09;100196.91;10285088;28;20047;-62
2023/06/07 19:27:00;;;;;;;4.57;3.88;;;;;;;25.44;42.39;100197.53;10282428;28;20065;-65
2023/06/07 19:32:03;;;;;;;3.20;2.90;;;;;;;25.30;42.75;100202.78;10289203;28;20050;-65
2023/06/07 19:37:05;;;;;;;7.18;3.35;;;;;;;25.17;42.92;100202.50;10281500;28;20406;-65
2023/06/07 19:42:08;;;;;;;4.85;3.25;;;;;;;25.03;43.25;100205.81;10287275;28;20545;-65
2023/06/07 19:47:10;;;;;;;4.40;2.70;;;;;;;24.89;43.40;100207.47;10287789;28;20113;-66
2023/06/07 19:52:12;;;;;;;6.00;2.90;;;;;;;24.71;43.74;100204.16;10283036;28;20039;-65
2023/06/07 19:57:13;;;;;;;4.15;2.53;;;;;;;24.54;43.85;100212.63;10283167;28;20109;-65
2023/06/07 20:02:15;;;;;;;3.20;2.55;;;;;;;24.40;44.00;100214.25;10294871;28;20168;-65
2023/06/07 20:07:17;;;;;;;4.82;2.72;;;;;;;24.38;44.05;100208.19;10292505;28;20039;-65
2023/06/07 20:12:18;;;;;;;3.90;2.65;;;;;;;24.27;44.29;100204.59;10297169;28;20043;-62
2023/06/07 20:17:25;;;;;;;4.88;2.47;;;;;;;24.20;43.83;100211.44;10283609;28;20090;-62
2023/06/07 20:22:30;;;;;;;7.03;2.78;;;;;;;24.13;43.72;100223.53;10289505;28;20470;-62
2023/06/07 20:27:31;;;;;;;8.00;2.90;;;;;;;24.13;43.33;100228.16;10284396;28;20389;-61
2023/06/07 20:32:33;;;;;;;5.57;2.00;;;;;;;24.16;43.55;100238.63;10284323;28;20357;-63
2023/06/07 20:37:34;;;;;;;4.28;2.63;;;;;;;24.18;43.98;100241.94;10276883;28;20054;-62
2023/06/07 20:42:35;;;;;;;4.47;2.42;;;;;;;24.20;44.40;100239.75;10283207;28;20058;-61
2023/06/07 20:47:37;;;;;;;4.15;2.72;;;;;;;24.21;44.05;100230.41;10283691;28;20030;-61
2023/06/07 20:52:38;;;;;;;5.47;2.80;;;;;;;24.08;44.38;100228.97;10282943;28;20078;-61
2023/06/07 20:57:40;;;;;;;2.50;2.30;;;;;;;24.02;44.55;100223.75;10278626;28;20058;-62
2023/06/07 21:02:41;;;;;;;5.18;2.92;;;;;;;24.00;45.00;100237.75;10288371;28;20038;-64
2023/06/07 21:07:43;;;;;;;6.20;3.53;;;;;;;23.42;47.34;100240.44;10289871;28;20042;-61
2023/06/07 21:12:44;;;;;;;10.15;3.38;;;;;;;23.11;48.71;100245.69;10291188;28;20398;-63
2023/06/07 21:17:46;;;;;;;8.20;3.88;;;;;;;22.96;50.38;100249.06;10290694;28;20038;-62
2023/06/07 21:22:47;;;;;;;5.25;4.63;;;;;;;22.70;51.18;100260.91;10294199;28;20050;-62
2023/06/07 21:27:49;;;;;;;5.65;4.28;;;;;;;22.55;51.92;100258.81;10259906;28;20383;-63
2023/06/07 21:32:50;;;;;;;8.05;3.90;;;;;;;22.44;52.94;100262.53;10296132;28;20082;-61
2023/06/07 21:37:52;;;;;;;11.90;4.82;;;;;;;22.39;54.21;100266.03;10290110;28;20117;-62
2023/06/07 21:42:53;;;;;;;7.72;3.90;;;;;;;22.35;54.60;100270.38;10293345;28;20054;-62
2023/06/07 21:47:55;;;;;;;10.23;5.00;;;;;;;22.33;54.97;100278.00;10291351;28;20053;-62
2023/06/07 21:52:57;;;;;;;24.77;7.72;;;;;;;22.10;56.54;100271.69;10282261;28;20061;-61
2023/06/07 21:57:58;;;;;;;7.53;5.65;;;;;;;21.27;58.67;100271.56;10286407;28;20050;-61
2023/06/07 22:03:00;;;;;;;12.73;6.63;;;;;;;20.48;61.44;100268.75;10278875;28;20049;-62
2023/06/07 22:08:01;;;;;;;11.63;7.05;;;;;;;20.24;63.26;100265.28;10276106;28;20568;-63
2023/06/07 22:13:02;;;;;;;12.05;8.10;;;;;;;20.29;63.67;100268.13;10298778;28;20125;-61
2023/06/07 22:18:04;;;;;;;10.55;7.30;;;;;;;20.28;63.95;100266.47;10287384;28;20046;-64
2023/06/07 22:23:07;;;;;;;10.02;7.35;;;;;;;20.13;64.67;100256.91;10292384;28;20051;-63
2023/06/07 22:28:09;;;;;;;12.60;9.02;;;;;;;20.19;65.12;100253.19;10285156;28;20050;-64
2023/06/07 22:33:11;;;;;;;10.80;7.45;;;;;;;20.27;65.28;100249.25;10289877;28;20043;-63
2023/06/07 22:38:13;;;;;;;7.75;6.95;;;;;;;20.28;65.67;100248.19;10285067;28;20130;-64
2023/06/07 22:43:14;;;;;;;8.63;7.68;;;;;;;20.23;65.16;100239.91;10289934;28;20050;-63
2023/06/07 22:48:18;;;;;;;7.35;6.28;;;;;;;20.18;65.07;100239.78;10290424;28;20083;-63
2023/06/07 22:53:20;;;;;;;7.30;6.50;;;;;;;20.12;64.79;100233.41;10289655;28;20556;-63
2023/06/07 22:58:21;;;;;;;7.50;6.60;;;;;;;20.05;64.78;100240.09;10291945;28;20061;-63
2023/06/07 23:03:23;;;;;;;10.45;6.22;;;;;;;19.94;64.35;100237.13;10292171;28;20516;-62
2023/06/07 23:08:25;;;;;;;7.88;5.95;;;;;;;19.87;64.43;100236.44;10289314;28;20039;-62